Terminal Aerodrome Forecast
Issued by NWS

Home | Current Version | Previous Version | Graphics & Text | Print | Product List | Glossary On
Versions: 1 2 3 4 5 6 7 8 9 10 11 12 13 14 15 16 17 18 19 20 21 22 23 24 25 26
078
FTUS43 KLOT 271130
TAFDPA
TAF
KDPA 271130Z 2712/2812 29015G22KT 5SM -SHRA BKN007 OVC012
     FM271300 26018G28KT 6SM -SHRA SCT007 OVC010
     FM271600 25017G26KT P6SM BKN025
     FM272300 25009KT P6SM BKN035
     FM280300 20005KT P6SM BKN060=

USA.gov is the U.S. government's official web portal to all federal, state and local government web resources and services.